createdAt,value
2023-02-02T00:00:22.463Z,92.66
2023-02-02T00:05:24.151Z,92.36
2023-02-02T00:10:25.683Z,92.97
2023-02-02T00:15:26.986Z,93.29
2023-02-02T00:20:29.300Z,93.94
2023-02-02T00:25:30.667Z,94.44
2023-02-02T00:30:32.044Z,95.54
2023-02-02T00:35:33.370Z,95.28
2023-02-02T00:40:34.674Z,94.93
2023-02-02T00:45:36.310Z,94.72
2023-02-02T00:50:37.636Z,94.75
2023-02-02T00:55:39.050Z,94.12
2023-02-02T01:00:40.479Z,93.96
2023-02-02T01:05:41.837Z,94.45
2023-02-02T01:10:43.154Z,94.48
2023-02-02T01:15:44.477Z,94.21
2023-02-02T01:20:45.789Z,94.03
2023-02-02T01:25:52.548Z,93.75
2023-02-02T01:30:53.922Z,93.87
2023-02-02T01:35:55.905Z,93.61
2023-02-02T01:40:57.831Z,93.54
2023-02-02T01:45:59.330Z,93.55
2023-02-02T01:51:03.656Z,93.40
2023-02-02T01:56:06.754Z,98.50
2023-02-02T02:01:08.208Z,99.73
2023-02-02T02:06:15.221Z,100.00
2023-02-02T02:11:16.619Z,100.00
2023-02-02T02:16:20.748Z,100.00
2023-02-02T02:22:03.035Z,99.99
2023-02-02T02:27:10.200Z,100.00
2023-02-02T02:32:31.092Z,100.00
2023-02-02T02:37:47.735Z,100.00
2023-02-02T02:42:52.191Z,100.00
2023-02-02T02:47:54.334Z,100.00
2023-02-02T02:53:16.169Z,100.00
2023-02-02T02:58:46.956Z,100.00
2023-02-02T03:03:54.409Z,100.00
2023-02-02T03:09:00.394Z,100.00
2023-02-02T03:14:01.939Z,100.00
2023-02-02T03:19:04.562Z,100.00
2023-02-02T03:24:06.068Z,100.00
2023-02-02T03:29:07.400Z,100.00
2023-02-02T03:34:08.723Z,100.00
2023-02-02T03:39:10.057Z,100.00
2023-02-02T03:44:11.364Z,100.00
2023-02-02T03:49:12.722Z,100.00
2023-02-02T03:54:14.373Z,100.00
2023-02-02T03:59:15.689Z,100.00
2023-02-02T04:04:17.030Z,100.00
2023-02-02T04:09:18.428Z,100.00
2023-02-02T04:14:20.107Z,100.00
2023-02-02T04:19:21.442Z,100.00
2023-02-02T04:24:23.411Z,100.00
2023-02-02T04:29:26.240Z,100.00
2023-02-02T04:34:28.116Z,100.00
2023-02-02T04:39:31.080Z,100.00
2023-02-02T04:44:32.493Z,100.00
2023-02-02T04:49:33.823Z,100.00
2023-02-02T04:54:35.148Z,100.00
2023-02-02T04:59:36.534Z,100.00
2023-02-02T05:04:37.942Z,100.00
2023-02-02T05:09:39.257Z,100.00
2023-02-02T05:14:40.592Z,100.00
2023-02-02T05:19:42.123Z,100.00
2023-02-02T05:24:43.486Z,100.00
2023-02-02T05:29:46.569Z,100.00
2023-02-02T05:34:47.953Z,100.00
2023-02-02T05:39:50.772Z,100.00
2023-02-02T05:44:52.083Z,100.00
2023-02-02T05:49:53.429Z,100.00
2023-02-02T05:54:54.821Z,100.00
2023-02-02T05:59:56.378Z,100.00
2023-02-02T06:04:57.689Z,100.00
2023-02-02T06:09:59.268Z,100.00
2023-02-02T06:15:00.660Z,100.00
2023-02-02T06:20:02.068Z,100.00
2023-02-02T06:25:05.510Z,100.00
2023-02-02T06:30:07.499Z,100.00
2023-02-02T06:35:08.983Z,100.00
2023-02-02T06:40:10.625Z,100.00
2023-02-02T06:45:12.229Z,100.00
2023-02-02T06:50:13.704Z,100.00
2023-02-02T06:55:15.152Z,100.00
2023-02-02T07:00:16.663Z,100.00
2023-02-02T07:05:19.554Z,100.00
2023-02-02T07:11:12.800Z,100.00
2023-02-02T07:15:42.309Z,100.00
2023-02-02T07:20:43.665Z,100.00
2023-02-02T07:25:44.991Z,100.00
2023-02-02T07:30:46.350Z,100.00
2023-02-02T07:35:47.678Z,100.00
2023-02-02T07:40:49.070Z,100.00
2023-02-02T07:45:50.389Z,100.00
2023-02-02T07:50:51.724Z,100.00
2023-02-02T07:55:53.214Z,100.00
2023-02-02T08:00:54.574Z,100.00
2023-02-02T08:05:56.493Z,100.00
2023-02-02T08:10:57.832Z,100.00
2023-02-02T08:15:59.170Z,100.00
2023-02-02T08:21:01.177Z,100.00
2023-02-02T08:26:12.941Z,100.00
2023-02-02T08:31:16.702Z,100.00
2023-02-02T08:36:19.354Z,100.00
2023-02-02T08:41:21.948Z,100.00
2023-02-02T08:46:23.395Z,100.00
2023-02-02T08:51:24.790Z,100.00
2023-02-02T08:56:26.155Z,100.00
2023-02-02T09:01:28.761Z,100.00
2023-02-02T09:06:37.637Z,100.00
2023-02-02T09:11:38.971Z,100.00
2023-02-02T09:16:40.783Z,100.00
2023-02-02T09:21:42.190Z,100.00
2023-02-02T09:26:44.074Z,100.00
2023-02-02T09:31:45.634Z,100.00
2023-02-02T09:36:47.727Z,100.00
2023-02-02T09:42:05.405Z,100.00
2023-02-02T09:47:09.714Z,100.00
2023-02-02T09:52:16.463Z,100.00
2023-02-02T09:57:20.899Z,100.00
2023-02-02T10:02:24.711Z,100.00
2023-02-02T10:07:47.043Z,100.00
2023-02-02T10:13:05.956Z,100.00
2023-02-02T10:18:15.205Z,100.00
2023-02-02T10:23:22.575Z,98.67
2023-02-02T10:28:34.238Z,95.72
2023-02-02T10:33:39.154Z,93.72
2023-02-02T10:38:47.731Z,90.90
2023-02-02T10:43:54.588Z,88.65
2023-02-02T10:49:22.208Z,87.76
2023-02-02T10:54:55.774Z,88.34
2023-02-02T11:00:10.861Z,91.08
2023-02-02T11:05:39.160Z,94.03
2023-02-02T11:10:40.838Z,95.35
2023-02-02T11:15:42.457Z,96.26
2023-02-02T11:20:46.518Z,94.80
2023-02-02T11:25:57.501Z,93.28
2023-02-02T11:30:59.336Z,91.60
2023-02-02T11:36:02.361Z,88.86
2023-02-02T11:41:11.031Z,86.26
2023-02-02T11:46:21.391Z,88.33
2023-02-02T11:51:24.437Z,88.73
2023-02-02T11:56:26.814Z,88.29
2023-02-02T12:01:28.307Z,89.84
2023-02-02T12:06:32.468Z,88.19
2023-02-02T12:11:43.537Z,88.63
2023-02-02T12:16:53.415Z,89.15
2023-02-02T12:22:21.604Z,87.87
2023-02-02T12:27:25.774Z,86.79
2023-02-02T12:32:27.099Z,87.34
2023-02-02T12:37:39.581Z,86.95
2023-02-02T12:42:47.853Z,86.11
2023-02-02T12:47:49.172Z,86.88
2023-02-02T12:52:59.540Z,86.12
2023-02-02T12:58:19.727Z,83.59
2023-02-02T13:03:27.140Z,85.22
2023-02-02T13:08:32.989Z,85.17
2023-02-02T13:13:36.816Z,84.35
2023-02-02T13:18:46.483Z,84.77
2023-02-02T13:23:50.409Z,84.07
2023-02-02T13:29:10.164Z,83.07
2023-02-02T13:34:21.007Z,82.81
2023-02-02T13:39:27.919Z,82.16
2023-02-02T13:44:35.439Z,82.89
2023-02-02T13:49:47.172Z,84.24
2023-02-02T13:55:13.355Z,84.00
2023-02-02T14:00:20.564Z,83.62
2023-02-02T14:05:24.215Z,84.04
2023-02-02T14:10:28.832Z,82.79
2023-02-02T14:15:40.943Z,83.51
2023-02-02T14:20:44.034Z,84.31
2023-02-02T14:25:45.372Z,83.87
2023-02-02T14:31:06.739Z,83.38
2023-02-02T14:36:12.713Z,81.56
2023-02-02T14:41:51.717Z,80.85
2023-02-02T14:46:53.111Z,80.70
2023-02-02T14:51:56.373Z,80.50
2023-02-02T14:57:02.944Z,81.26
2023-02-02T15:02:14.267Z,81.53
2023-02-02T15:07:35.996Z,80.80
2023-02-02T15:12:39.748Z,81.52
2023-02-02T15:17:41.336Z,81.93
2023-02-02T15:22:50.029Z,82.68
2023-02-02T15:28:11.465Z,82.42
2023-02-02T15:33:36.917Z,82.09
2023-02-02T15:38:40.302Z,81.77
2023-02-02T15:43:41.634Z,83.01
2023-02-02T15:48:43.952Z,82.46
2023-02-02T15:53:48.318Z,82.94
2023-02-02T15:58:50.832Z,83.25
2023-02-02T16:03:52.197Z,81.93
2023-02-02T16:08:53.557Z,82.08
2023-02-02T16:14:00.571Z,82.88
2023-02-02T16:19:03.415Z,82.16
2023-02-02T16:24:07.206Z,82.70
2023-02-02T16:29:17.298Z,83.40
2023-02-02T16:34:38.576Z,83.03
2023-02-02T16:39:39.918Z,82.71
2023-02-02T16:44:45.265Z,83.68
2023-02-02T16:49:46.609Z,83.35
2023-02-02T16:54:55.032Z,83.57
2023-02-02T17:00:01.613Z,82.71
2023-02-02T17:05:06.006Z,83.44
2023-02-02T17:10:16.425Z,83.54
2023-02-02T17:15:17.863Z,83.71
2023-02-02T17:20:19.405Z,83.61
2023-02-02T17:25:33.001Z,84.17
2023-02-02T17:30:34.409Z,84.99
2023-02-02T17:35:52.695Z,83.60
2023-02-02T17:40:55.606Z,84.28
2023-02-02T17:50:58.742Z,83.78
2023-02-02T17:56:00.074Z,85.18
2023-02-02T18:01:01.992Z,84.55
2023-02-02T18:06:03.793Z,84.74
2023-02-02T18:11:05.254Z,84.83
2023-02-02T18:16:06.829Z,85.17
2023-02-02T18:21:11.989Z,85.06
2023-02-02T18:26:14.879Z,84.46
2023-02-02T18:31:19.370Z,85.65
2023-02-02T18:36:21.440Z,85.03
2023-02-02T18:41:22.875Z,85.80
2023-02-02T18:46:24.372Z,85.90
2023-02-02T18:51:26.072Z,86.51
2023-02-02T18:56:28.164Z,86.53
2023-02-02T19:01:30.087Z,86.50
2023-02-02T19:06:50.140Z,87.45
2023-02-02T19:11:54.719Z,87.11
2023-02-02T19:16:59.561Z,88.16
2023-02-02T19:22:03.496Z,88.69
2023-02-02T19:27:14.607Z,88.20
2023-02-02T19:32:23.449Z,88.58
2023-02-02T19:37:24.794Z,88.50
2023-02-02T19:42:26.251Z,89.46
2023-02-02T19:47:30.365Z,89.71
2023-02-02T19:52:32.036Z,89.21
2023-02-02T19:57:36.561Z,89.61
2023-02-02T20:02:43.663Z,90.08
2023-02-02T20:07:45.434Z,90.75
2023-02-02T20:12:46.928Z,91.09
2023-02-02T20:17:48.258Z,91.34
2023-02-02T20:22:49.590Z,92.01
2023-02-02T20:27:51.032Z,92.16
2023-02-02T20:32:55.246Z,91.74
2023-02-02T20:37:56.546Z,92.26
2023-02-02T20:42:58.579Z,92.50
2023-02-02T20:47:59.899Z,91.11
2023-02-02T20:53:01.236Z,91.69
2023-02-02T20:58:03.482Z,91.52
2023-02-02T21:03:04.925Z,92.62
2023-02-02T21:08:07.052Z,92.14
2023-02-02T21:13:08.410Z,92.43
2023-02-02T21:18:09.715Z,92.04
2023-02-02T21:23:11.034Z,92.04
2023-02-02T21:28:12.414Z,91.92
2023-02-02T21:33:13.772Z,92.40
2023-02-02T21:38:15.384Z,92.63
2023-02-02T21:43:17.586Z,92.27
2023-02-02T21:48:18.895Z,92.01
2023-02-02T21:53:21.892Z,91.44
2023-02-02T21:58:23.313Z,91.65
2023-02-02T22:03:27.145Z,92.80
2023-02-02T22:08:31.185Z,95.52
2023-02-02T22:13:34.418Z,99.58
2023-02-02T22:18:35.755Z,99.47
2023-02-02T22:23:38.648Z,100.00
2023-02-02T22:28:40.065Z,100.00
2023-02-02T22:33:41.446Z,100.00
2023-02-02T22:38:42.832Z,100.00
2023-02-02T22:43:44.187Z,100.00
2023-02-02T22:48:45.515Z,100.00
2023-02-02T22:53:47.315Z,100.00
2023-02-02T22:58:48.634Z,100.00
2023-02-02T23:03:49.957Z,100.00
2023-02-02T23:08:51.305Z,100.00
2023-02-02T23:13:52.670Z,100.00
2023-02-02T23:18:54.017Z,100.00
2023-02-02T23:23:55.918Z,100.00
2023-02-02T23:28:57.340Z,100.00
2023-02-02T23:33:58.728Z,100.00
2023-02-02T23:39:00.041Z,100.00
2023-02-02T23:44:01.443Z,100.00
2023-02-02T23:49:02.818Z,100.00
2023-02-02T23:54:06.382Z,100.00
2023-02-02T23:59:07.980Z,100.00
